Time;durP1;ratioP1;P1;durP2;ratioP2;P2;SDS_P1;SDS_P2;PMS_P1;PMS_P2;Temp;Humidity;BMP_temperature;BMP_pressure;BME280_temperature;BME280_humidity;BME280_pressure;Samples;Min_cycle;Max_cycle;Signal;HPM_P1;HPM_P2
2021/12/17 00:07:08;;;;;;;15.47;14.17;;;;;;;1.16;80.53;93454.88;5087128;28;20204;-78
2021/12/17 00:09:34;;;;;;;16.13;14.83;;;;;;;1.08;79.69;93462.00;5068297;28;20205;-78
2021/12/17 00:11:59;;;;;;;14.20;13.23;;;;;;;1.09;79.50;93443.81;5083886;28;20201;-78
2021/12/17 00:14:27;;;;;;;14.33;13.23;;;;;;;1.33;78.30;93468.91;5067018;28;20221;-78
2021/12/17 00:16:55;;;;;;;14.27;13.17;;;;;;;1.27;78.43;93464.56;5067578;28;20189;-78
2021/12/17 00:49:00;;;;;;;15.03;13.83;;;;;;;1.46;77.17;93465.50;5088791;28;20243;-77
2021/12/17 00:51:55;;;;;;;13.93;12.83;;;;;;;1.58;76.85;93484.44;5092002;28;20184;-78
2021/12/17 00:54:29;;;;;;;13.93;12.73;;;;;;;1.59;76.42;93471.38;5092869;28;20209;-78
2021/12/17 00:56:58;;;;;;;14.80;13.70;;;;;;;1.28;76.43;93448.13;5091751;28;20196;-78
2021/12/17 00:59:24;;;;;;;13.97;12.90;;;;;;;1.47;76.83;93467.88;5092958;28;20192;-78
2021/12/17 01:01:52;;;;;;;14.67;13.43;;;;;;;1.61;76.07;93489.19;5089843;28;20193;-78
2021/12/17 01:04:18;;;;;;;13.30;12.33;;;;;;;1.59;75.64;93471.38;5090730;28;20322;-78
2021/12/17 01:06:44;;;;;;;14.93;13.63;;;;;;;1.61;77.67;93479.69;5090652;28;20184;-77
2021/12/17 01:09:14;;;;;;;13.00;12.10;;;;;;;1.67;75.42;93474.75;5091496;28;20220;-78
2021/12/17 01:11:40;;;;;;;13.30;12.40;;;;;;;1.54;75.28;93465.28;5091709;28;20205;-78
2021/12/17 01:14:06;;;;;;;13.83;12.73;;;;;;;1.67;75.05;93481.47;5089787;28;20240;-78
2021/12/17 01:16:32;;;;;;;13.20;12.10;;;;;;;1.57;74.98;93442.47;5091774;28;20201;-78
2021/12/17 01:19:31;;;;;;;12.77;11.77;;;;;;;1.73;76.08;93466.19;5073334;28;20828;-78
2021/12/17 01:24:51;;;;;;;12.80;12.00;;;;;;;1.59;73.84;93445.66;4990073;28;20202;-78
2021/12/17 01:35:30;;;;;;;12.73;11.93;;;;;;;1.20;74.72;93414.91;5071529;28;20216;-78
2021/12/17 01:43:21;;;;;;;12.83;11.83;;;;;;;1.43;75.63;93422.94;5070311;28;20213;-78
2021/12/17 01:45:47;;;;;;;13.57;12.57;;;;;;;1.31;75.60;93391.13;5069509;28;20216;-77
2021/12/17 01:48:19;;;;;;;13.70;12.67;;;;;;;1.27;75.32;93389.97;5069446;28;20223;-78
2021/12/17 01:56:30;;;;;;;13.43;12.53;;;;;;;1.52;74.82;93424.31;5070550;28;20207;-78
2021/12/17 02:01:41;;;;;;;14.47;13.27;;;;;;;1.38;75.90;93433.06;5068797;28;20224;-78
2021/12/17 02:04:07;;;;;;;13.97;12.97;;;;;;;1.49;75.38;93435.00;5102770;28;20221;-78
2021/12/17 02:06:37;;;;;;;14.40;13.30;;;;;;;1.22;76.09;93394.13;5070268;28;20185;-78
2021/12/17 02:09:53;;;;;;;13.53;12.60;;;;;;;1.30;76.07;93435.06;5089870;28;20216;-79
2021/12/17 02:28:55;;;;;;;13.20;12.30;;;;;;;1.34;76.07;93413.06;5089463;28;20243;-78
2021/12/17 02:31:32;;;;;;;12.83;11.90;;;;;;;1.39;76.37;93424.34;5090314;28;20193;-78
2021/12/17 02:34:15;;;;;;;14.10;13.00;;;;;;;1.26;76.17;93398.66;5090274;28;20223;-78
2021/12/17 02:36:43;;;;;;;13.33;12.33;;;;;;;1.43;75.72;93417.03;5090695;28;20185;-78
2021/12/17 02:47:39;;;;;;;13.67;12.57;;;;;;;0.98;76.30;93354.44;5067682;28;20243;-78
2021/12/17 02:50:07;;;;;;;13.50;12.57;;;;;;;1.48;76.51;93423.13;5067929;28;20201;-77
2021/12/17 02:52:35;;;;;;;15.17;14.07;;;;;;;1.54;75.40;93406.88;5069799;28;20232;-77
2021/12/17 02:55:02;;;;;;;13.37;12.43;;;;;;;1.67;75.87;93427.41;5069580;28;20204;-77
2021/12/17 02:57:28;;;;;;;13.97;13.07;;;;;;;1.50;75.73;93410.06;5069722;28;20221;-78
2021/12/17 02:59:54;;;;;;;12.93;11.87;;;;;;;1.62;76.30;93422.09;5068833;28;20213;-78
2021/12/17 03:02:24;;;;;;;14.67;13.53;;;;;;;1.41;76.81;93401.81;5066591;28;20248;-78
2021/12/17 03:04:50;;;;;;;14.37;13.30;;;;;;;1.57;77.19;93428.84;5068817;28;20185;-78
2021/12/17 03:07:16;;;;;;;14.80;13.70;;;;;;;1.67;77.68;93416.31;5066639;28;20233;-78
2021/12/17 03:12:28;;;;;;;15.07;14.07;;;;;;;1.82;77.07;93432.31;5068225;28;20220;-78
2021/12/17 03:15:02;;;;;;;13.60;12.43;;;;;;;1.68;77.89;93372.38;5068394;28;20296;-78
2021/12/17 03:25:44;;;;;;;14.10;13.10;;;;;;;1.94;78.67;93428.09;5067335;28;20235;-77
2021/12/17 03:28:10;;;;;;;13.90;12.80;;;;;;;1.87;78.26;93409.28;5068846;28;20225;-78
2021/12/17 03:30:36;;;;;;;14.37;13.37;;;;;;;1.99;78.25;93420.53;5070503;28;20193;-78
2021/12/17 03:33:02;;;;;;;14.43;13.33;;;;;;;1.96;78.19;93420.16;5078407;28;20288;-76
2021/12/17 03:35:27;;;;;;;15.13;14.03;;;;;;;2.11;80.27;93418.06;5089766;28;20199;-78
2021/12/17 03:37:53;;;;;;;14.37;13.27;;;;;;;2.05;79.91;93403.47;5088692;28;20320;-77
2021/12/17 03:40:20;;;;;;;15.50;14.33;;;;;;;2.11;80.81;93434.31;5089260;28;20184;-77
2021/12/17 03:42:48;;;;;;;12.63;11.80;;;;;;;1.94;80.36;93414.41;5089687;28;20224;-77
2021/12/17 03:45:16;;;;;;;15.97;14.57;;;;;;;2.03;81.58;93420.88;5089077;28;20199;-78
2021/12/17 03:47:42;;;;;;;15.83;14.30;;;;;;;1.71;81.63;93381.47;5088386;28;20224;-78
2021/12/17 03:50:08;;;;;;;15.07;13.87;;;;;;;2.10;81.66;93401.06;5087907;28;20216;-78
2021/12/17 03:52:33;;;;;;;13.80;12.73;;;;;;;2.21;81.32;93400.41;5086370;28;20220;-79
2021/12/17 03:54:59;;;;;;;14.00;13.10;;;;;;;2.12;81.74;93406.78;5089297;28;20202;-78
2021/12/17 03:57:24;;;;;;;13.47;12.57;;;;;;;2.06;82.84;93399.88;5087472;28;20235;-78
2021/12/17 03:59:50;;;;;;;12.57;11.77;;;;;;;2.04;83.88;93394.16;5089221;28;20199;-78
2021/12/17 04:02:16;;;;;;;13.03;12.27;;;;;;;2.08;83.44;93385.00;5090984;28;20243;-78
2021/12/17 04:04:43;;;;;;;13.37;12.47;;;;;;;1.91;83.76;93371.88;5092540;28;20216;-78
2021/12/17 04:07:08;;;;;;;13.73;12.83;;;;;;;1.97;83.47;93370.22;5124425;28;20232;-77
2021/12/17 04:09:34;;;;;;;14.20;13.30;;;;;;;1.85;82.75;93336.66;5093497;28;20201;-77
2021/12/17 04:12:01;;;;;;;12.07;11.37;;;;;;;1.81;83.79;93360.41;5089959;28;20215;-77
2021/12/17 04:14:41;;;;;;;13.10;12.20;;;;;;;1.97;83.64;93377.94;5073538;28;20226;-78
2021/12/17 04:17:07;;;;;;;12.63;11.93;;;;;;;1.84;83.01;93354.88;5071569;28;20228;-78
2021/12/17 04:19:33;;;;;;;11.43;10.93;;;;;;;2.16;82.07;93369.31;5070029;28;20201;-78
2021/12/17 04:21:59;;;;;;;11.93;11.33;;;;;;;2.07;82.66;93361.03;5071973;28;20199;-78
2021/12/17 04:24:24;;;;;;;10.93;10.43;;;;;;;2.17;82.66;93355.44;5072588;28;20190;-78
2021/12/17 04:26:50;;;;;;;10.37;9.87;;;;;;;2.11;82.75;93335.66;5073582;28;20202;-77
2021/12/17 04:29:17;;;;;;;10.30;9.80;;;;;;;2.21;81.71;93339.34;5070989;28;20201;-78
2021/12/17 04:31:43;;;;;;;10.57;10.07;;;;;;;2.16;82.20;93343.56;5071759;28;20194;-78
2021/12/17 04:34:11;;;;;;;11.70;10.97;;;;;;;2.25;82.25;93337.94;5091692;28;20268;-78
2021/12/17 04:36:37;;;;;;;10.43;9.83;;;;;;;1.97;81.76;93295.56;5089653;28;20188;-78
2021/12/17 04:39:04;;;;;;;10.60;10.10;;;;;;;2.12;81.54;93324.38;5091934;28;20784;-77
2021/12/17 04:46:33;;;;;;;11.40;10.70;;;;;;;2.09;82.42;93304.97;5092493;28;20218;-78
2021/12/17 05:00:05;;;;;;;11.57;10.97;;;;;;;2.45;81.38;93307.66;5081682;28;20212;-78
2021/12/17 05:02:36;;;;;;;10.63;10.13;;;;;;;2.37;80.04;93320.00;5090365;28;20228;-76
2021/12/17 05:05:07;;;;;;;10.63;10.13;;;;;;;2.33;80.87;93287.94;5087681;28;20185;-77
2021/12/17 05:07:35;;;;;;;11.10;10.50;;;;;;;2.32;81.37;93307.00;5088949;28;21139;-77
2021/12/17 05:10:21;;;;;;;9.87;9.47;;;;;;;2.39;81.56;93330.88;5090788;28;20225;-76
2021/12/17 05:18:26;;;;;;;10.73;10.23;;;;;;;2.06;84.88;93317.47;5089415;28;21003;-79
2021/12/17 05:20:58;;;;;;;11.57;10.93;;;;;;;2.01;85.28;93309.63;5090190;28;20271;-83
2021/12/17 05:26:13;;;;;;;10.23;9.83;;;;;;;2.28;82.02;93310.97;5089781;28;20215;-78
2021/12/17 05:28:39;;;;;;;11.40;10.90;;;;;;;2.43;82.57;93324.34;5074918;28;20232;-83
2021/12/17 05:31:05;;;;;;;9.33;9.03;;;;;;;2.69;80.65;93332.59;5067968;28;20206;-79
2021/12/17 05:33:30;;;;;;;9.10;8.43;;;;;;;2.63;80.10;93304.31;5085194;28;20248;-80
2021/12/17 05:35:56;;;;;;;9.80;9.40;;;;;;;2.48;80.78;93327.84;5090290;28;20195;-80
2021/12/17 05:38:24;;;;;;;9.77;9.37;;;;;;;2.48;81.15;93337.34;5089891;28;20232;-80
2021/12/17 05:40:50;;;;;;;9.07;8.77;;;;;;;2.38;81.28;93306.13;5090677;28;20211;-83
2021/12/17 05:43:16;;;;;;;8.87;8.47;;;;;;;2.42;81.18;93330.47;5088520;28;20213;-85
2021/12/17 05:48:10;;;;;;;9.57;9.17;;;;;;;2.66;79.29;93330.44;5089092;28;21257;-76
2021/12/17 05:50:39;;;;;;;9.20;8.87;;;;;;;2.65;79.70;93328.88;5089325;28;20193;-80
2021/12/17 05:53:06;;;;;;;9.17;8.87;;;;;;;2.57;79.98;93330.94;5078655;28;20225;-77
2021/12/17 05:55:33;;;;;;;9.60;9.20;;;;;;;2.55;78.97;93307.16;5069988;28;20185;-81
2021/12/17 05:57:59;;;;;;;9.77;9.37;;;;;;;2.61;77.90;93316.63;5069255;28;20276;-79
2021/12/17 06:00:25;;;;;;;9.63;9.33;;;;;;;2.66;78.34;93319.34;5070150;28;20194;-81
2021/12/17 06:02:51;;;;;;;9.82;9.43;;;;;;;2.77;77.55;93326.38;5066021;28;20505;-81
2021/12/17 06:05:17;;;;;;;10.23;9.80;;;;;;;2.66;77.39;93327.84;5067620;28;20193;-81
2021/12/17 06:07:43;;;;;;;9.90;9.53;;;;;;;2.72;78.61;93350.22;5069281;28;20217;-83
2021/12/17 06:10:10;;;;;;;10.57;10.07;;;;;;;2.71;77.84;93337.53;5068613;28;20266;-85
2021/12/17 06:12:37;;;;;;;10.23;9.73;;;;;;;2.55;78.56;93317.47;5069560;28;20296;-82
2021/12/17 06:15:05;;;;;;;8.53;8.17;;;;;;;2.57;78.52;93336.09;5067779;28;20271;-77
2021/12/17 06:17:31;;;;;;;13.20;12.60;;;;;;;3.74;77.08;93321.84;5075579;28;20221;-86
2021/12/17 06:19:57;;;;;;;10.60;10.10;;;;;;;2.95;77.37;93360.72;5091643;28;20196;-82
2021/12/17 06:22:23;;;;;;;9.43;9.03;;;;;;;2.78;78.31;93346.00;5082916;28;20225;-81
2021/12/17 06:24:48;;;;;;;10.23;9.73;;;;;;;2.70;78.76;93361.72;5069003;28;20196;-80
2021/12/17 06:27:16;;;;;;;9.53;9.13;;;;;;;2.60;79.72;93358.88;5100684;28;20225;-81
2021/12/17 06:29:42;;;;;;;10.93;10.47;;;;;;;2.63;80.05;93361.03;5070290;28;20213;-81
2021/12/17 06:32:08;;;;;;;11.37;10.77;;;;;;;2.45;80.56;93340.34;5069169;28;20224;-81
2021/12/17 06:34:34;;;;;;;9.97;9.50;;;;;;;2.55;81.29;93358.72;5064492;28;20203;-79
2021/12/17 06:37:00;;;;;;;11.53;10.97;;;;;;;2.43;81.95;93344.94;5069604;28;20182;-81
2021/12/17 06:39:26;;;;;;;11.23;10.73;;;;;;;2.36;82.40;93331.31;5069795;28;20189;-81
2021/12/17 06:41:51;;;;;;;11.57;11.03;;;;;;;2.54;82.17;93349.38;5069369;28;20775;-80
2021/12/17 06:44:22;;;;;;;12.07;11.47;;;;;;;2.53;82.19;93350.38;5069344;28;20193;-79
2021/12/17 06:54:52;;;;;;;13.83;12.73;;;;;;;2.31;84.98;93321.66;5069094;28;20196;-80
2021/12/17 07:10:56;;;;;;;13.23;12.33;;;;;;;2.45;87.51;93358.38;5069213;28;20235;-80
2021/12/17 07:40:07;;;;;;;15.50;14.20;;;;;;;2.32;91.69;93345.63;5069171;28;20185;-79
2021/12/17 07:42:33;;;;;;;14.80;13.70;;;;;;;2.26;91.38;93325.84;5075624;28;20251;-79
2021/12/17 07:44:59;;;;;;;14.93;13.83;;;;;;;2.23;91.27;93323.69;5089225;28;20188;-80
2021/12/17 07:47:25;;;;;;;14.40;13.20;;;;;;;2.37;91.54;93332.88;5088575;28;20224;-80
2021/12/17 07:49:51;;;;;;;14.40;13.40;;;;;;;2.52;90.71;93335.94;5088551;28;20287;-80
2021/12/17 07:52:17;;;;;;;13.37;12.37;;;;;;;2.29;90.65;93307.41;5089268;28;20260;-80
2021/12/17 07:54:42;;;;;;;14.67;13.50;;;;;;;2.49;90.41;93344.09;5091008;28;20193;-78
2021/12/17 07:57:08;;;;;;;15.53;14.27;;;;;;;2.43;89.98;93330.25;5088879;28;20216;-80
2021/12/17 07:59:34;;;;;;;14.47;13.27;;;;;;;2.31;90.13;93319.06;5088293;28;20196;-79
2021/12/17 08:01:59;;;;;;;13.27;12.47;;;;;;;2.34;90.04;93320.41;5088817;28;20200;-80
2021/12/17 08:04:25;;;;;;;13.43;12.50;;;;;;;2.44;90.16;93336.22;5089063;28;20223;-80
2021/12/17 08:06:50;;;;;;;14.20;13.20;;;;;;;2.51;89.21;93353.19;5088964;28;20199;-79
2021/12/17 08:09:16;;;;;;;15.03;14.03;;;;;;;2.48;89.55;93342.50;5088989;28;20221;-80
2021/12/17 08:11:41;;;;;;;14.23;13.23;;;;;;;2.46;88.74;93352.25;5089042;28;20185;-79
2021/12/17 08:14:12;;;;;;;13.37;12.43;;;;;;;2.31;88.50;93331.94;5088265;28;20258;-81
2021/12/17 08:16:52;;;;;;;15.03;13.93;;;;;;;2.50;89.04;93356.75;5088425;28;20207;-80
2021/12/17 08:24:59;;;;;;;13.57;12.57;;;;;;;2.55;89.30;93354.31;5067157;28;20240;-80
2021/12/17 08:30:20;;;;;;;14.13;13.13;;;;;;;2.51;89.03;93347.22;5069690;28;20217;-80
2021/12/17 08:32:41;;;;;;;12.13;11.23;;;;;;;2.66;88.16;93345.13;5075708;28;20228;-79
2021/12/17 08:35:08;;;;;;;12.93;12.03;;;;;;;2.72;86.86;93339.13;5088388;28;20705;-80
2021/12/17 08:37:33;;;;;;;12.10;11.20;;;;;;;2.79;86.67;93330.31;5080877;28;20231;-80
2021/12/17 08:39:59;;;;;;;12.87;12.03;;;;;;;2.94;86.05;93332.56;5067929;28;20238;-79
2021/12/17 08:42:25;;;;;;;14.37;13.47;;;;;;;2.90;86.01;93333.97;5068869;28;20237;-80
2021/12/17 08:44:51;;;;;;;12.73;11.87;;;;;;;2.47;85.79;93261.06;5068533;28;20197;-80
2021/12/17 08:47:16;;;;;;;12.97;12.17;;;;;;;2.85;86.16;93337.19;5074080;28;20227;-80
2021/12/17 08:49:43;;;;;;;12.63;11.93;;;;;;;2.96;85.78;93328.75;5092384;28;20235;-79
2021/12/17 08:52:09;;;;;;;11.13;10.53;;;;;;;2.96;85.34;93333.09;5091312;28;20239;-79
2021/12/17 08:54:35;;;;;;;12.13;11.33;;;;;;;2.99;85.36;93324.94;5093258;28;20195;-79
2021/12/17 08:57:02;;;;;;;13.37;12.47;;;;;;;2.78;85.55;93307.31;5092042;28;20204;-79
2021/12/17 08:59:29;;;;;;;13.67;12.83;;;;;;;2.95;84.55;93334.13;5092450;28;20193;-81
2021/12/17 09:01:55;;;;;;;15.27;14.23;;;;;;;2.97;84.11;93325.16;5092282;28;20177;-80
2021/12/17 09:04:20;;;;;;;12.73;11.93;;;;;;;2.93;84.39;93320.66;5092439;28;20188;-79
2021/12/17 09:06:46;;;;;;;11.50;10.87;;;;;;;2.93;83.43;93308.56;5090431;28;20333;-79
2021/12/17 09:09:17;;;;;;;11.57;10.97;;;;;;;2.92;83.59;93298.44;5125486;27;20296;-81
2021/12/17 09:11:42;;;;;;;11.60;10.90;;;;;;;3.00;83.81;93303.31;5091545;28;20189;-80
2021/12/17 09:14:09;;;;;;;11.80;11.10;;;;;;;3.06;83.36;93315.34;5091225;28;20247;-80
2021/12/17 09:16:35;;;;;;;11.83;11.10;;;;;;;2.85;83.03;93282.25;5092272;28;20195;-80
2021/12/17 09:19:03;;;;;;;12.90;12.13;;;;;;;3.06;83.44;93317.94;5071382;28;20832;-80
2021/12/17 09:21:28;;;;;;;12.73;12.03;;;;;;;3.08;83.16;93297.88;5072174;28;20257;-80
2021/12/17 09:23:53;;;;;;;11.70;10.90;;;;;;;2.98;83.52;93287.28;5089176;28;20233;-79
2021/12/17 09:26:20;;;;;;;13.33;12.53;;;;;;;3.10;83.51;93285.53;5092573;28;20242;-83
2021/12/17 09:28:47;;;;;;;11.97;11.27;;;;;;;3.02;83.92;93301.28;5091795;28;20223;-80
2021/12/17 09:31:13;;;;;;;13.70;12.80;;;;;;;3.02;84.95;93299.50;5090953;28;20283;-79
2021/12/17 09:33:45;;;;;;;12.20;11.40;;;;;;;2.87;85.52;93281.06;5091581;28;20228;-80
2021/12/17 09:36:11;;;;;;;14.53;13.57;;;;;;;2.90;85.82;93290.94;5090334;28;20193;-79
2021/12/17 09:38:37;;;;;;;13.13;12.33;;;;;;;2.71;85.44;93262.78;5091924;28;20228;-80
2021/12/17 09:41:03;;;;;;;13.63;12.73;;;;;;;2.83;85.50;93285.03;5091744;28;20210;-80
2021/12/17 09:43:37;;;;;;;13.03;12.23;;;;;;;3.03;85.13;93290.00;5077495;28;20225;-81
2021/12/17 09:46:06;;;;;;;14.73;13.73;;;;;;;3.14;85.50;93287.47;5070161;28;20193;-81
2021/12/17 09:48:33;;;;;;;13.87;12.83;;;;;;;2.99;84.84;93258.69;5071404;28;20235;-80
2021/12/17 09:50:58;;;;;;;14.23;13.13;;;;;;;3.03;85.71;93274.53;5069372;28;20205;-79
2021/12/17 09:53:24;;;;;;;14.00;12.90;;;;;;;2.97;85.60;93267.66;5070854;28;20225;-80
2021/12/17 09:55:50;;;;;;;14.83;13.70;;;;;;;2.99;85.23;93265.63;5070189;28;20198;-81
2021/12/17 09:58:16;;;;;;;14.40;13.23;;;;;;;2.90;86.17;93254.03;5083287;28;20239;-81
2021/12/17 10:00:42;;;;;;;15.03;13.80;;;;;;;2.76;86.45;93231.97;5091166;28;20201;-79
2021/12/17 10:03:08;;;;;;;12.00;11.30;;;;;;;2.79;86.09;93216.88;5091214;28;20230;-80
2021/12/17 10:05:36;;;;;;;12.77;11.97;;;;;;;2.72;86.43;93211.03;5089948;28;20207;-81
2021/12/17 10:08:12;;;;;;;14.03;13.13;;;;;;;3.00;85.47;93229.31;5089581;28;20220;-79
2021/12/17 10:10:41;;;;;;;17.33;15.93;;;;;;;3.12;85.47;93219.06;5091563;28;20292;-80
2021/12/17 10:13:11;;;;;;;15.90;14.70;;;;;;;3.34;84.71;93215.00;5090205;28;20240;-80
2021/12/17 10:15:40;;;;;;;15.17;13.97;;;;;;;2.93;84.02;93153.03;5091189;28;20233;-80
2021/12/17 10:18:06;;;;;;;13.87;12.80;;;;;;;3.31;83.27;93192.22;5089683;28;20232;-79
2021/12/17 10:20:56;;;;;;;15.53;14.53;;;;;;;3.52;83.00;93190.91;5090379;28;20200;-80
2021/12/17 10:23:24;;;;;;;17.43;16.23;;;;;;;4.19;80.72;93193.78;5090673;28;20232;-81
2021/12/17 10:25:51;;;;;;;14.87;13.77;;;;;;;4.13;78.64;93181.75;5090840;28;20213;-80
2021/12/17 10:28:17;;;;;;;17.20;15.90;;;;;;;4.21;78.60;93170.28;5089144;28;20239;-80
2021/12/17 10:30:45;;;;;;;14.80;13.67;;;;;;;4.09;78.22;93177.28;5090907;28;20192;-80
2021/12/17 10:33:17;;;;;;;11.33;10.63;;;;;;;4.02;78.98;93172.22;5088707;28;20240;-80
2021/12/17 10:35:48;;;;;;;12.67;11.97;;;;;;;4.01;78.80;93170.66;5090382;28;20252;-81
2021/12/17 10:38:16;;;;;;;15.83;14.80;;;;;;;3.81;79.31;93156.50;5089899;28;20220;-79
2021/12/17 10:40:51;;;;;;;12.50;11.80;;;;;;;3.77;80.23;93169.06;5090790;28;20196;-81
2021/12/17 10:43:25;;;;;;;13.20;12.50;;;;;;;3.73;79.90;93161.97;5089264;28;20230;-80
2021/12/17 10:46:19;;;;;;;13.07;12.17;;;;;;;3.81;79.17;93154.72;5090908;28;20215;-80
2021/12/17 10:54:08;;;;;;;11.80;11.20;;;;;;;3.59;77.80;93102.03;5089931;28;20231;-79
2021/12/17 10:56:42;;;;;;;13.80;13.00;;;;;;;3.79;79.12;93138.66;5089474;28;20928;-80
2021/12/17 10:59:15;;;;;;;12.47;11.87;;;;;;;3.82;78.00;93130.44;5089343;28;20224;-80
2021/12/17 11:01:45;;;;;;;12.17;11.37;;;;;;;3.99;77.93;93146.84;5089817;28;20193;-80
2021/12/17 11:04:32;;;;;;;15.70;14.87;;;;;;;3.88;78.41;93152.78;5068244;28;20223;-81
2021/12/17 11:07:10;;;;;;;13.27;12.50;;;;;;;3.93;79.04;93147.75;5068195;28;20622;-80
2021/12/17 11:09:49;;;;;;;13.17;12.37;;;;;;;3.87;78.85;93153.00;5068731;28;20242;-80
2021/12/17 11:12:29;;;;;;;13.13;12.33;;;;;;;3.55;80.54;93120.78;5098964;28;20266;-80
2021/12/17 11:15:07;;;;;;;14.50;13.50;;;;;;;3.62;81.09;93130.00;5069123;28;20225;-79
2021/12/17 11:17:33;;;;;;;13.67;12.77;;;;;;;3.58;81.83;93153.91;5069329;28;20220;-80
2021/12/17 11:20:04;;;;;;;13.43;12.73;;;;;;;3.76;82.34;93159.75;5067664;28;20889;-81
2021/12/17 11:22:30;;;;;;;14.20;13.20;;;;;;;3.68;82.19;93144.59;5067684;28;20236;-79
2021/12/17 11:25:00;;;;;;;12.17;11.47;;;;;;;3.59;82.22;93133.03;5067570;28;20204;-80
2021/12/17 11:27:26;;;;;;;13.80;12.90;;;;;;;3.67;83.24;93158.50;5068228;28;20297;-79
2021/12/17 11:29:52;;;;;;;14.70;13.77;;;;;;;3.42;82.74;93141.63;5069840;28;20239;-81
2021/12/17 11:32:19;;;;;;;15.33;14.33;;;;;;;3.38;83.40;93120.63;5069603;28;20225;-81
2021/12/17 11:34:44;;;;;;;16.17;15.07;;;;;;;3.43;83.98;93130.28;5067909;28;20654;-80
2021/12/17 11:37:11;;;;;;;15.90;14.90;;;;;;;3.44;83.97;93117.16;5068201;28;20296;-80
2021/12/17 11:39:43;;;;;;;14.57;13.70;;;;;;;3.43;83.96;93115.59;5069278;28;20193;-80
2021/12/17 11:42:33;;;;;;;13.17;12.37;;;;;;;3.46;83.68;93125.47;5073735;28;20243;-81
2021/12/17 11:47:46;;;;;;;12.63;11.93;;;;;;;3.02;87.27;93106.09;5080219;28;20235;-80
2021/12/17 11:50:16;;;;;;;13.07;12.37;;;;;;;3.06;88.58;93111.59;5068969;28;20212;-80
2021/12/17 11:52:47;;;;;;;12.90;12.00;;;;;;;2.97;89.21;93098.22;5068534;28;20252;-79
2021/12/17 11:55:36;;;;;;;16.97;15.77;;;;;;;2.93;88.88;93097.09;5069338;28;20185;-80
2021/12/17 11:58:09;;;;;;;17.60;16.23;;;;;;;2.87;88.46;93068.84;5067148;28;20225;-80
2021/12/17 12:00:40;;;;;;;14.17;13.20;;;;;;;3.05;86.54;93092.75;5069318;28;20177;-80
2021/12/17 12:03:15;;;;;;;13.83;13.03;;;;;;;3.10;84.27;93085.16;5067590;28;20292;-81
2021/12/17 12:05:44;;;;;;;12.17;11.47;;;;;;;3.08;83.80;93076.06;5068338;28;20193;-80
2021/12/17 12:08:53;;;;;;;12.23;11.53;;;;;;;3.14;84.24;93090.66;5068645;28;20239;-80
2021/12/17 12:11:25;;;;;;;13.30;12.40;;;;;;;2.96;83.88;93067.50;5068020;28;20186;-79
2021/12/17 12:13:52;;;;;;;12.30;11.50;;;;;;;3.07;83.28;93087.38;5068072;28;20228;-81
2021/12/17 12:16:21;;;;;;;12.70;11.97;;;;;;;3.12;83.15;93082.34;5069342;28;20215;-82
2021/12/17 12:18:49;;;;;;;12.07;11.33;;;;;;;2.97;83.22;93069.09;5084077;28;20247;-81
2021/12/17 12:21:19;;;;;;;13.40;12.57;;;;;;;2.81;83.49;93070.50;5088941;28;20192;-81
2021/12/17 12:23:53;;;;;;;13.40;12.60;;;;;;;2.71;83.81;93054.78;5092904;28;20225;-82
2021/12/17 12:26:22;;;;;;;13.07;12.17;;;;;;;2.95;83.43;93073.69;5092936;28;20188;-81
2021/12/17 12:28:54;;;;;;;13.20;12.43;;;;;;;3.04;81.77;93064.63;5092002;28;20231;-81
2021/12/17 12:31:19;;;;;;;13.50;12.57;;;;;;;3.03;81.61;93060.47;5091792;28;20192;-80
2021/12/17 12:34:00;;;;;;;14.67;13.87;;;;;;;3.05;79.50;93043.00;5092335;28;20256;-81
2021/12/17 12:36:44;;;;;;;12.87;12.07;;;;;;;3.15;78.82;93046.59;5091726;28;20199;-80
2021/12/17 12:39:30;;;;;;;13.33;12.50;;;;;;;3.26;75.56;93037.28;5090604;28;21369;-81
2021/12/17 12:42:23;;;;;;;12.60;11.70;;;;;;;3.30;75.50;93017.75;5091434;28;20256;-82
2021/12/17 12:44:49;;;;;;;12.53;11.83;;;;;;;3.29;74.44;93042.00;5092543;28;20231;-82
2021/12/17 12:47:20;;;;;;;12.90;12.10;;;;;;;3.25;75.06;93031.31;5092658;28;20292;-81
2021/12/17 12:50:06;;;;;;;10.87;10.17;;;;;;;3.15;75.81;93025.16;5091859;28;20208;-81
2021/12/17 12:52:31;;;;;;;11.43;10.53;;;;;;;3.03;77.15;93027.75;5084867;28;20228;-81
2021/12/17 12:55:05;;;;;;;14.00;13.30;;;;;;;2.90;77.14;93011.66;5072978;28;20182;-79
2021/12/17 12:57:36;;;;;;;12.27;11.50;;;;;;;2.94;77.30;93017.97;5071325;28;20221;-78
2021/12/17 13:00:30;;;;;;;11.30;10.63;;;;;;;2.94;76.46;93021.31;5071165;28;20185;-79
2021/12/17 13:03:02;;;;;;;12.50;11.80;;;;;;;3.04;75.01;93016.41;5037814;28;20229;-78
2021/12/17 13:05:28;;;;;;;11.00;10.50;;;;;;;3.09;75.22;93020.91;5072679;28;20220;-79
2021/12/17 13:07:59;;;;;;;12.70;12.10;;;;;;;3.07;74.72;93003.06;5081188;28;20264;-79
2021/12/17 13:10:28;;;;;;;10.53;9.97;;;;;;;3.06;73.61;92991.19;5091923;28;20216;-78
2021/12/17 13:13:00;;;;;;;11.90;11.20;;;;;;;3.11;72.41;92998.25;5113633;28;20225;-78
2021/12/17 13:21:32;;;;;;;13.27;12.57;;;;;;;3.26;71.19;93037.28;5072695;28;20273;-78
2021/12/17 13:24:14;;;;;;;12.23;11.53;;;;;;;3.26;72.06;93032.91;5090354;28;20231;-78
2021/12/17 13:27:10;;;;;;;14.87;13.97;;;;;;;3.09;72.14;93047.47;5090991;28;20195;-78
2021/12/17 13:29:43;;;;;;;11.63;11.03;;;;;;;3.04;73.33;93044.78;5070262;28;20232;-77
2021/12/17 13:32:14;;;;;;;12.67;11.97;;;;;;;2.98;72.88;93044.88;5071079;28;20228;-78
2021/12/17 13:34:40;;;;;;;12.03;11.37;;;;;;;2.98;72.73;93035.34;5069630;28;20197;-78
2021/12/17 13:37:25;;;;;;;13.37;12.67;;;;;;;2.81;73.31;93028.47;5071969;28;20236;-78
2021/12/17 13:39:54;;;;;;;13.13;12.27;;;;;;;3.60;71.50;93033.91;5091005;28;20184;-79
2021/12/17 13:42:26;;;;;;;14.67;13.87;;;;;;;2.88;72.85;93042.06;5091161;28;20245;-81
2021/12/17 13:44:56;;;;;;;17.47;16.33;;;;;;;3.06;76.35;93036.81;5090065;28;20201;-82
2021/12/17 13:47:30;;;;;;;14.17;13.37;;;;;;;3.08;73.40;93051.06;5088825;28;20275;-79
2021/12/17 13:50:00;;;;;;;12.07;11.37;;;;;;;3.23;72.87;93035.16;5090176;28;20223;-81
2021/12/17 13:52:29;;;;;;;14.23;13.33;;;;;;;3.14;73.71;93033.91;5087353;28;20254;-82
2021/12/17 13:54:59;;;;;;;12.43;11.63;;;;;;;3.14;74.15;93021.03;5123208;28;20200;-82
2021/12/17 13:57:29;;;;;;;12.63;11.73;;;;;;;3.13;74.51;93024.59;5089446;28;20224;-81
2021/12/17 14:00:23;;;;;;;15.10;14.00;;;;;;;2.97;74.71;93004.63;5073955;28;20192;-78
2021/12/17 14:02:50;;;;;;;15.67;14.80;;;;;;;3.36;72.71;93037.53;5077027;28;20237;-82
2021/12/17 14:05:26;;;;;;;10.80;10.20;;;;;;;3.22;72.61;93010.38;5069697;28;20723;-81
2021/12/17 14:07:54;;;;;;;12.67;12.07;;;;;;;3.07;72.74;92985.00;5079099;28;20232;-78
2021/12/17 14:10:22;;;;;;;11.13;10.53;;;;;;;3.03;72.95;92996.81;5088980;28;20208;-84
2021/12/17 14:12:49;;;;;;;13.30;12.60;;;;;;;2.99;71.90;92984.53;5089057;28;20236;-81
2021/12/17 14:15:23;;;;;;;12.17;11.50;;;;;;;2.87;74.29;92991.50;5088958;28;20240;-83
2021/12/17 14:17:55;;;;;;;13.57;12.60;;;;;;;2.85;76.45;92976.25;5088563;28;20258;-77
2021/12/17 14:20:27;;;;;;;11.37;10.60;;;;;;;2.77;74.01;93010.09;5089140;28;20181;-77
2021/12/17 14:23:02;;;;;;;12.13;11.37;;;;;;;2.84;75.12;93004.81;5088770;28;20229;-76
2021/12/17 14:25:39;;;;;;;10.97;10.40;;;;;;;2.65;72.85;93004.13;5089791;28;20212;-85
2021/12/17 14:28:21;;;;;;;13.10;12.23;;;;;;;2.94;73.43;93020.56;5090422;28;20212;-84
2021/12/17 14:31:07;;;;;;;13.63;12.70;;;;;;;2.75;73.59;93037.88;5089540;28;20208;-81
2021/12/17 14:33:39;;;;;;;11.83;11.10;;;;;;;2.77;74.94;93033.28;5089886;28;20232;-80
2021/12/17 14:36:08;;;;;;;12.07;11.47;;;;;;;2.83;74.56;93031.63;5089991;28;20209;-77
2021/12/17 14:38:45;;;;;;;11.23;10.50;;;;;;;2.81;74.06;93033.63;5089155;28;20225;-76
2021/12/17 14:41:18;;;;;;;12.13;11.40;;;;;;;2.57;74.16;93006.25;5089625;28;20210;-77
2021/12/17 14:43:57;;;;;;;16.00;14.70;;;;;;;2.64;75.22;93022.38;5089757;28;20224;-75
2021/12/17 14:46:32;;;;;;;13.47;12.53;;;;;;;2.51;76.97;93032.88;5090299;28;20197;-77
2021/12/17 15:05:21;;;;;;;17.97;16.37;;;;;;;2.35;77.89;93064.41;5088864;28;21180;-78
2021/12/17 15:07:47;;;;;;;15.60;14.30;;;;;;;2.35;78.77;93061.84;5089665;28;20231;-79
2021/12/17 15:10:15;;;;;;;13.17;12.07;;;;;;;2.33;78.21;93071.56;5089425;28;20218;-77